Boca do Acre, Brazil
Current Conditions -  °F | °C
As of 8:00 PM on Friday 28 Nov 2014 (Local Time) from SBRB Reporting Station
Clear Clear  
Wind Chill: 77°   Ceiling: Unl
Heat Index: 78°   Visibility: 6mi
Dew Point: 73°   Wind: 0mph
Humidity: 89%   Direction: NA
Pressure: 29.8"   Gusts: NA
Location:  8.74°S, 67.4°W
Report Text: SBRB 290000Z 00000KT CAVOK 25/23 Q1009
Loading
Personal Weather Stations






























Interactive Weather Map New forecast layout! Learn more

10-Day Weather Forecast

Advertisements
Track Severe Weather on mobile